Time;durP1;ratioP1;P1;durP2;ratioP2;P2;SDS_P1;SDS_P2;PMS_P1;PMS_P2;Temp;Humidity;BMP_temperature;BMP_pressure;BME280_temperature;BME280_humidity;BME280_pressure;Samples;Min_cycle;Max_cycle;Signal;HPM_P1;HPM_P2
2024/03/09 00:00:31;;;;;;;23.42;10.38;;;;;;;0.01;100.00;96199.19;5059658;28;20511;-62
2024/03/09 00:03:01;;;;;;;22.35;11.10;;;;;;;0.07;100.00;96204.50;5058585;28;20056;-62
2024/03/09 00:05:29;;;;;;;20.63;11.07;;;;;;;-0.11;100.00;96201.72;5046501;28;20057;-62
2024/03/09 00:07:57;;;;;;;19.25;10.70;;;;;;;-0.09;100.00;96210.31;5054335;28;20684;-62
2024/03/09 00:10:26;;;;;;;20.90;10.80;;;;;;;-0.01;100.00;96215.38;5051339;28;20049;-62
2024/03/09 00:12:54;;;;;;;18.95;10.18;;;;;;;0.07;100.00;96217.00;5053210;28;20037;-62
2024/03/09 00:15:25;;;;;;;22.95;10.63;;;;;;;0.00;100.00;96214.38;5052202;28;20056;-62
2024/03/09 00:17:57;;;;;;;20.48;10.35;;;;;;;-0.14;100.00;96210.97;5052955;28;20059;-62
2024/03/09 00:20:28;;;;;;;21.58;11.18;;;;;;;-0.02;100.00;96216.41;5056489;28;20053;-62
2024/03/09 00:22:58;;;;;;;18.85;10.38;;;;;;;0.02;100.00;96219.47;5053051;28;20041;-62
2024/03/09 00:25:28;;;;;;;23.17;11.77;;;;;;;0.08;100.00;96215.97;5047456;28;20484;-62
2024/03/09 00:27:56;;;;;;;18.95;10.85;;;;;;;0.12;100.00;96207.31;5054708;28;20036;-62
2024/03/09 00:30:29;;;;;;;21.52;11.75;;;;;;;0.20;100.00;96197.44;5054843;28;20540;-62
2024/03/09 00:33:00;;;;;;;20.38;11.07;;;;;;;0.19;100.00;96201.94;5052849;28;20040;-62
2024/03/09 00:35:30;;;;;;;19.52;10.15;;;;;;;-0.03;100.00;96193.50;5060516;28;20597;-62
2024/03/09 00:37:59;;;;;;;19.83;9.82;;;;;;;-0.06;100.00;96197.41;5057407;28;20864;-62
2024/03/09 00:40:30;;;;;;;20.23;11.30;;;;;;;-0.14;100.00;96195.78;5062618;28;20078;-62
2024/03/09 00:43:03;;;;;;;17.40;10.25;;;;;;;-0.36;100.00;96183.84;5048970;28;20041;-62
2024/03/09 00:45:30;;;;;;;21.52;11.00;;;;;;;-0.33;100.00;96178.09;5059769;28;20482;-62
2024/03/09 00:47:57;;;;;;;20.75;11.43;;;;;;;-0.23;100.00;96178.44;5050299;28;20037;-62
2024/03/09 00:50:26;;;;;;;24.75;12.93;;;;;;;-0.02;100.00;96172.00;5049228;28;20405;-62
2024/03/09 00:52:53;;;;;;;23.15;11.18;;;;;;;-0.08;100.00;96177.38;5056336;28;20063;-62
2024/03/09 00:55:22;;;;;;;23.08;10.32;;;;;;;-0.09;100.00;96165.91;5064206;28;20101;-62
2024/03/09 00:57:53;;;;;;;22.33;12.35;;;;;;;-0.18;100.00;96177.81;5065127;28;20105;-62
2024/03/09 01:00:23;;;;;;;19.27;10.52;;;;;;;-0.14;100.00;96181.69;5058129;28;20473;-62
2024/03/09 01:02:50;;;;;;;19.02;10.73;;;;;;;0.02;100.00;96182.19;5059944;28;20586;-62
2024/03/09 01:05:22;;;;;;;21.88;11.20;;;;;;;0.23;100.00;96200.50;5058244;28;20052;-62
2024/03/09 01:07:49;;;;;;;24.13;11.63;;;;;;;0.30;100.00;96202.31;5055591;28;20059;-62
2024/03/09 01:10:17;;;;;;;20.02;10.25;;;;;;;0.49;100.00;96200.53;5049795;28;20504;-62
2024/03/09 01:12:43;;;;;;;21.60;10.65;;;;;;;0.70;100.00;96193.22;5046480;28;20127;-62
2024/03/09 01:15:10;;;;;;;17.95;9.65;;;;;;;0.76;100.00;96192.31;5048538;28;20099;-62
2024/03/09 01:17:37;;;;;;;21.67;10.73;;;;;;;0.71;100.00;96187.66;5058167;28;20116;-62
2024/03/09 01:20:06;;;;;;;20.52;10.30;;;;;;;0.58;100.00;96187.75;5062793;28;20795;-62
2024/03/09 01:22:36;;;;;;;17.52;11.13;;;;;;;0.55;100.00;96181.00;5058584;28;20633;-62
2024/03/09 01:25:03;;;;;;;21.65;11.18;;;;;;;0.41;100.00;96183.00;5053600;28;20683;-62
2024/03/09 01:27:30;;;;;;;19.27;10.40;;;;;;;0.20;100.00;96184.97;5065253;28;20055;-62
2024/03/09 01:29:59;;;;;;;19.40;10.50;;;;;;;0.19;100.00;96182.50;5061719;28;20049;-62
2024/03/09 01:32:29;;;;;;;20.05;10.52;;;;;;;0.27;100.00;96176.94;5056215;28;20045;-62
2024/03/09 01:34:56;;;;;;;16.63;10.48;;;;;;;0.31;100.00;96167.50;5059769;28;20148;-62
2024/03/09 01:37:24;;;;;;;21.25;10.82;;;;;;;0.44;100.00;96155.91;5059290;28;20127;-62
2024/03/09 01:39:51;;;;;;;22.40;11.45;;;;;;;0.56;100.00;96153.38;5064838;28;20119;-62
2024/03/09 01:42:18;;;;;;;18.52;10.27;;;;;;;0.74;100.00;96157.91;5068516;28;20052;-62
2024/03/09 01:44:49;;;;;;;19.70;10.98;;;;;;;0.84;100.00;96152.06;5052930;28;20047;-62
2024/03/09 01:47:21;;;;;;;17.85;9.77;;;;;;;0.74;100.00;96151.78;5054421;28;20040;-62
2024/03/09 01:49:50;;;;;;;18.38;8.90;;;;;;;0.47;100.00;96150.16;5064328;28;20043;-62
2024/03/09 01:52:21;;;;;;;20.33;10.07;;;;;;;0.63;100.00;96162.09;5058108;28;20045;-62
2024/03/09 01:54:49;;;;;;;19.98;10.02;;;;;;;0.75;100.00;96150.72;5057325;28;20040;-62
2024/03/09 01:57:17;;;;;;;17.95;10.80;;;;;;;0.84;100.00;96153.91;5059106;28;20555;-62
2024/03/09 01:59:48;;;;;;;19.40;10.45;;;;;;;0.97;100.00;96145.81;5066231;28;20040;-62
2024/03/09 02:02:15;;;;;;;20.13;9.83;;;;;;;0.99;100.00;96143.72;5063754;28;20492;-63
2024/03/09 02:04:44;;;;;;;17.35;10.43;;;;;;;1.06;100.00;96148.19;5061051;28;20054;-62
2024/03/09 02:07:16;;;;;;;19.25;10.25;;;;;;;1.12;100.00;96150.78;5067009;28;20044;-62
2024/03/09 02:09:44;;;;;;;18.95;10.43;;;;;;;1.20;100.00;96140.84;5062047;28;20035;-62
2024/03/09 02:12:13;;;;;;;17.85;9.68;;;;;;;1.08;100.00;96135.44;5060631;28;20055;-62
2024/03/09 02:14:41;;;;;;;19.00;11.25;;;;;;;1.12;100.00;96141.97;5059226;28;20348;-62
2024/03/09 02:17:07;;;;;;;17.55;8.82;;;;;;;1.04;100.00;96143.88;5058380;28;20080;-62
2024/03/09 02:19:35;;;;;;;20.77;10.75;;;;;;;1.09;100.00;96140.56;5057695;28;20631;-62
2024/03/09 02:22:03;;;;;;;18.80;11.00;;;;;;;1.05;100.00;96136.69;5058279;28;20037;-62
2024/03/09 02:24:34;;;;;;;18.73;10.45;;;;;;;1.10;100.00;96138.72;5063950;28;20423;-62
2024/03/09 02:27:01;;;;;;;21.33;10.07;;;;;;;1.23;100.00;96133.22;5057581;28;20084;-62
2024/03/09 02:29:28;;;;;;;18.75;10.32;;;;;;;1.34;100.00;96129.00;5052071;28;20315;-62
2024/03/09 02:31:57;;;;;;;17.73;10.02;;;;;;;1.39;100.00;96122.97;5044784;28;20052;-62
2024/03/09 02:34:25;;;;;;;19.05;10.80;;;;;;;1.39;100.00;96130.97;5051169;28;20716;-62
2024/03/09 02:36:52;;;;;;;16.50;9.20;;;;;;;1.41;100.00;96124.38;5061281;28;20653;-62
2024/03/09 02:39:20;;;;;;;18.00;10.55;;;;;;;1.48;100.00;96128.84;5060911;28;20041;-62
2024/03/09 02:41:46;;;;;;;17.35;9.27;;;;;;;1.54;100.00;96126.06;5061743;28;20059;-62
2024/03/09 02:44:13;;;;;;;17.63;9.93;;;;;;;1.61;100.00;96133.16;5061300;28;20057;-62
2024/03/09 02:46:40;;;;;;;17.05;9.65;;;;;;;1.50;100.00;96127.56;5065768;28;20044;-62
2024/03/09 02:49:07;;;;;;;18.83;10.68;;;;;;;1.47;100.00;96122.66;5069248;28;20423;-62
2024/03/09 02:51:34;;;;;;;16.83;9.63;;;;;;;1.50;100.00;96132.91;5063757;28;20443;-62
2024/03/09 02:54:02;;;;;;;18.58;10.77;;;;;;;1.66;100.00;96128.78;5063493;28;20047;-62
2024/03/09 02:56:30;;;;;;;20.48;11.20;;;;;;;1.60;100.00;96123.53;5060498;28;20033;-62
2024/03/09 02:58:58;;;;;;;19.88;10.85;;;;;;;1.64;100.00;96122.88;5064464;28;20411;-62
2024/03/09 03:01:26;;;;;;;23.63;10.45;;;;;;;1.69;100.00;96127.53;5061467;28;20044;-62
2024/03/09 03:04:01;;;;;;;21.10;10.93;;;;;;;1.80;100.00;96125.94;5066484;28;20131;-62
2024/03/09 03:06:29;;;;;;;17.73;10.13;;;;;;;1.84;100.00;96129.78;5067066;28;20041;-62
2024/03/09 03:08:59;;;;;;;19.77;11.02;;;;;;;1.94;100.00;96127.41;5067639;28;20034;-62
2024/03/09 03:11:27;;;;;;;18.70;11.02;;;;;;;1.97;100.00;96126.13;5064699;28;20110;-62
2024/03/09 03:13:54;;;;;;;22.23;10.70;;;;;;;1.88;100.00;96120.28;5056358;28;20139;-62
2024/03/09 03:16:26;;;;;;;21.92;11.82;;;;;;;1.77;100.00;96116.53;5067863;28;20526;-62
2024/03/09 03:18:54;;;;;;;20.90;10.82;;;;;;;1.84;100.00;96113.75;5055010;28;20334;-62
2024/03/09 03:21:20;;;;;;;20.73;11.57;;;;;;;1.73;100.00;96102.00;5060592;28;20072;-62
2024/03/09 03:23:50;;;;;;;19.35;10.85;;;;;;;1.89;100.00;96103.25;5065098;28;20040;-62
2024/03/09 03:26:19;;;;;;;18.95;11.02;;;;;;;2.05;100.00;96095.59;5062614;28;20036;-62
2024/03/09 03:28:48;;;;;;;22.27;12.73;;;;;;;2.03;100.00;96089.69;5062702;28;20043;-62
2024/03/09 03:31:18;;;;;;;21.33;11.75;;;;;;;2.02;100.00;96091.53;5064920;28;20521;-62
2024/03/09 03:33:46;;;;;;;24.23;11.88;;;;;;;2.03;100.00;96081.69;5066069;28;20498;-62
2024/03/09 03:36:15;;;;;;;23.27;12.35;;;;;;;2.10;100.00;96086.91;5054552;28;21487;-62
2024/03/09 03:38:48;;;;;;;20.17;11.27;;;;;;;2.16;100.00;96076.13;5067894;28;20432;-63
2024/03/09 03:41:16;;;;;;;23.03;12.20;;;;;;;2.21;100.00;96068.22;5061181;28;20052;-62
2024/03/09 03:43:44;;;;;;;25.23;12.48;;;;;;;2.19;100.00;96064.16;5060267;28;20032;-62
2024/03/09 03:46:13;;;;;;;22.98;11.52;;;;;;;2.26;100.00;96054.19;5059776;28;20669;-62
2024/03/09 03:48:40;;;;;;;22.83;12.23;;;;;;;2.15;100.00;96065.69;5067794;28;20041;-62
2024/03/09 03:51:07;;;;;;;23.50;13.23;;;;;;;2.17;100.00;96050.22;5060518;28;20055;-62
2024/03/09 03:53:33;;;;;;;26.60;13.10;;;;;;;2.23;100.00;96043.97;5051515;28;20048;-62
2024/03/09 03:56:01;;;;;;;25.67;12.93;;;;;;;2.25;100.00;96038.41;5061124;28;20044;-62
2024/03/09 03:58:28;;;;;;;27.88;14.90;;;;;;;2.56;100.00;96049.78;5061121;28;20157;-62
2024/03/09 04:00:55;;;;;;;25.52;13.65;;;;;;;2.47;100.00;96027.97;5060023;28;20089;-62
2024/03/09 04:03:22;;;;;;;25.10;12.52;;;;;;;2.50;100.00;96029.34;5058265;28;20036;-62
2024/03/09 04:05:49;;;;;;;27.58;14.65;;;;;;;2.48;100.00;96018.88;5058315;28;20051;-62
2024/03/09 04:08:19;;;;;;;25.00;14.48;;;;;;;2.47;100.00;96014.59;5065367;28;20091;-62
2024/03/09 04:10:46;;;;;;;26.25;14.63;;;;;;;2.52;100.00;96006.69;5067471;28;20036;-63
2024/03/09 04:13:13;;;;;;;22.98;13.05;;;;;;;2.50;100.00;95991.94;5050465;28;20045;-62
2024/03/09 04:15:41;;;;;;;21.90;11.57;;;;;;;2.47;100.00;95991.34;5061702;28;20064;-62
2024/03/09 04:18:08;;;;;;;24.13;13.77;;;;;;;2.46;100.00;95978.22;5062838;28;20512;-64
2024/03/09 04:20:34;;;;;;;26.27;12.95;;;;;;;2.45;100.00;95982.75;5057247;28;20052;-63
2024/03/09 04:23:05;;;;;;;26.05;14.32;;;;;;;2.63;100.00;95983.66;5057432;28;20271;-63
2024/03/09 04:25:38;;;;;;;23.50;12.37;;;;;;;2.51;100.00;95975.66;5058727;28;20106;-62
2024/03/09 04:28:05;;;;;;;29.17;14.40;;;;;;;2.62;100.00;95983.91;5061740;28;20302;-62
2024/03/09 04:30:36;;;;;;;26.60;13.70;;;;;;;2.65;100.00;95978.09;5057750;28;20174;-63
2024/03/09 04:33:06;;;;;;;28.30;14.05;;;;;;;2.54;100.00;95955.69;5050107;28;20490;-63
2024/03/09 04:35:34;;;;;;;27.45;15.20;;;;;;;2.46;100.00;95940.81;5058247;28;20051;-62
2024/03/09 04:38:02;;;;;;;24.38;15.13;;;;;;;2.38;100.00;95917.13;5061699;28;20049;-62
2024/03/09 04:40:28;;;;;;;24.08;14.10;;;;;;;2.40;100.00;95921.19;5057165;28;20043;-62
2024/03/09 04:42:55;;;;;;;26.33;14.38;;;;;;;2.45;100.00;95936.53;5062939;28;20044;-62
2024/03/09 04:45:25;;;;;;;22.10;12.63;;;;;;;2.44;100.00;95945.59;5049124;28;20106;-62
2024/03/09 04:47:52;;;;;;;23.63;13.50;;;;;;;2.41;100.00;95944.22;5059121;28;20039;-62
2024/03/09 04:50:19;;;;;;;24.73;13.43;;;;;;;2.42;100.00;95951.16;5054206;28;20037;-62
2024/03/09 04:52:47;;;;;;;22.40;13.85;;;;;;;2.55;100.00;95965.31;5064549;28;20044;-62
2024/03/09 04:55:17;;;;;;;23.25;12.48;;;;;;;2.58;100.00;95970.19;5050988;28;20122;-64
2024/03/09 04:57:45;;;;;;;22.42;12.02;;;;;;;2.56;100.00;95966.94;5055342;28;20032;-64
2024/03/09 05:00:17;;;;;;;23.98;12.85;;;;;;;2.57;100.00;95964.03;5061001;28;20037;-63
2024/03/09 05:02:44;;;;;;;24.60;12.25;;;;;;;2.61;100.00;95977.72;5053603;28;20047;-64
2024/03/09 05:05:17;;;;;;;23.27;12.55;;;;;;;2.64;100.00;95976.44;5056575;28;20053;-63
2024/03/09 05:07:46;;;;;;;25.58;13.48;;;;;;;2.64;100.00;95965.75;5064616;28;20036;-64
2024/03/09 05:10:17;;;;;;;23.02;12.88;;;;;;;2.64;100.00;95958.56;5062320;28;20594;-63
2024/03/09 05:12:53;;;;;;;25.67;12.73;;;;;;;2.70;100.00;95954.94;5055941;28;20036;-63
2024/03/09 05:15:30;;;;;;;17.98;10.90;;;;;;;2.69;100.00;95953.31;5062953;28;20049;-63
2024/03/09 05:18:02;;;;;;;24.25;12.10;;;;;;;2.70;100.00;95941.56;5066045;28;20115;-63
2024/03/09 05:20:29;;;;;;;19.83;11.48;;;;;;;2.76;100.00;95934.47;5059133;28;20508;-63
2024/03/09 05:22:58;;;;;;;23.55;12.73;;;;;;;2.77;100.00;95935.28;5064468;28;20518;-63
2024/03/09 05:25:25;;;;;;;21.90;11.15;;;;;;;2.77;100.00;95932.63;5057114;28;20041;-63
2024/03/09 05:27:53;;;;;;;21.20;11.60;;;;;;;2.72;100.00;95922.63;5056398;28;20618;-63
2024/03/09 05:30:27;;;;;;;21.63;12.80;;;;;;;2.62;100.00;95914.41;5058784;28;20067;-63
2024/03/09 05:32:57;;;;;;;24.05;14.38;;;;;;;2.53;100.00;95940.69;5058425;28;20063;-63
2024/03/09 05:35:28;;;;;;;19.30;10.60;;;;;;;2.52;100.00;95958.59;5061574;28;20519;-63
2024/03/09 05:37:56;;;;;;;19.13;9.85;;;;;;;2.82;100.00;95949.56;5064926;28;20040;-63
2024/03/09 05:40:26;;;;;;;20.70;10.48;;;;;;;2.99;100.00;95943.47;5066720;28;20539;-64
2024/03/09 05:42:55;;;;;;;18.00;9.82;;;;;;;2.99;100.00;95954.16;5061915;28;20048;-64
2024/03/09 05:45:22;;;;;;;20.02;9.90;;;;;;;3.04;100.00;95942.75;5053916;28;20049;-63
2024/03/09 05:47:56;;;;;;;16.50;9.68;;;;;;;3.09;100.00;95949.00;5067805;28;20043;-64
2024/03/09 05:50:32;;;;;;;15.98;9.27;;;;;;;3.12;100.00;95947.69;5055730;28;20064;-65
2024/03/09 05:53:00;;;;;;;18.52;9.35;;;;;;;3.14;100.00;95945.63;5062310;28;20128;-64
2024/03/09 05:55:28;;;;;;;15.48;8.30;;;;;;;3.16;100.00;95948.06;5060374;28;20048;-64
2024/03/09 05:57:56;;;;;;;14.80;8.20;;;;;;;3.27;100.00;95955.19;5054964;28;20123;-64
2024/03/09 06:00:27;;;;;;;17.38;9.48;;;;;;;3.44;100.00;95960.59;5060707;28;20040;-64
2024/03/09 06:02:57;;;;;;;23.83;10.63;;;;;;;3.35;100.00;95964.69;5052182;28;20044;-65
2024/03/09 06:05:28;;;;;;;19.48;10.98;;;;;;;3.20;100.00;95955.34;5063493;28;20696;-66
2024/03/09 06:07:57;;;;;;;18.40;11.23;;;;;;;3.10;100.00;95960.53;5066507;28;20036;-65
2024/03/09 06:10:24;;;;;;;24.70;12.75;;;;;;;2.99;100.00;95970.22;5056923;28;20124;-65
2024/03/09 06:12:52;;;;;;;25.42;12.73;;;;;;;2.91;100.00;95962.56;5057618;28;20101;-66
2024/03/09 06:15:20;;;;;;;22.17;13.32;;;;;;;2.90;100.00;95967.09;5058566;28;20057;-65
2024/03/09 06:17:48;;;;;;;21.35;12.15;;;;;;;2.93;100.00;95973.81;5055744;28;20458;-65
2024/03/09 06:20:17;;;;;;;21.67;10.50;;;;;;;2.88;100.00;95982.56;5051357;28;20089;-65
2024/03/09 06:22:47;;;;;;;23.48;13.10;;;;;;;2.90;100.00;95979.63;5060569;28;20040;-67
2024/03/09 06:25:29;;;;;;;24.52;12.55;;;;;;;2.60;100.00;95981.47;5047990;28;20563;-67
2024/03/09 06:28:02;;;;;;;22.30;13.88;;;;;;;2.63;100.00;95977.50;5054197;28;20487;-67
2024/03/09 06:30:29;;;;;;;21.23;11.32;;;;;;;2.77;100.00;95970.88;5055788;28;20068;-67
2024/03/09 06:32:59;;;;;;;22.90;12.38;;;;;;;2.70;100.00;95975.53;5062341;28;20136;-67
2024/03/09 06:35:28;;;;;;;25.02;12.27;;;;;;;2.66;100.00;95983.19;5058101;28;20102;-67
2024/03/09 06:38:07;;;;;;;22.23;12.27;;;;;;;2.61;100.00;95983.06;5060538;28;20075;-65
2024/03/09 06:40:36;;;;;;;23.25;12.70;;;;;;;2.59;100.00;95982.50;5053486;28;20094;-68
2024/03/09 06:43:11;;;;;;;23.75;12.75;;;;;;;2.58;100.00;95988.91;5050269;28;20475;-70
2024/03/09 06:45:39;;;;;;;28.15;13.77;;;;;;;2.56;100.00;95988.31;5064657;28;20075;-67
2024/03/09 06:48:07;;;;;;;24.05;13.18;;;;;;;2.54;100.00;95979.75;5060784;28;20047;-68
2024/03/09 06:50:36;;;;;;;26.30;12.77;;;;;;;2.63;100.00;95978.31;5061283;28;20052;-67
2024/03/09 06:53:03;;;;;;;30.45;15.32;;;;;;;2.61;100.00;95977.72;5055033;28;20037;-67
2024/03/09 06:55:30;;;;;;;24.92;14.32;;;;;;;2.70;100.00;95978.97;5055719;28;20128;-67
2024/03/09 06:58:01;;;;;;;28.08;13.98;;;;;;;2.70;100.00;95986.22;5059250;28;20524;-68
2024/03/09 07:00:31;;;;;;;26.23;13.75;;;;;;;2.76;100.00;95990.59;5063499;28;20043;-69
2024/03/09 07:02:59;;;;;;;24.38;14.25;;;;;;;2.85;100.00;95986.50;5066513;28;20040;-68
2024/03/09 07:05:30;;;;;;;25.65;14.57;;;;;;;2.92;100.00;95981.03;5055610;28;20055;-65
2024/03/09 07:08:00;;;;;;;;;;;;;;;2.98;100.00;95977.41;5058470;28;20071;-66
2024/03/09 07:10:28;;;;;;;26.55;12.93;;;;;;;3.11;100.00;95968.31;5061185;28;19921;-71
2024/03/09 07:12:55;;;;;;;25.42;14.52;;;;;;;3.16;100.00;95970.25;5063058;28;20119;-65
2024/03/09 07:15:23;;;;;;;22.40;12.63;;;;;;;3.30;100.00;95969.94;5057811;28;20053;-65
2024/03/09 07:17:51;;;;;;;25.70;14.70;;;;;;;3.48;100.00;95980.47;5064008;28;20499;-66
2024/03/09 07:20:18;;;;;;;24.88;13.40;;;;;;;3.53;100.00;95973.59;5056185;28;20032;-67
2024/03/09 07:22:50;;;;;;;24.58;13.95;;;;;;;3.64;100.00;95970.00;5066116;28;20105;-67
2024/03/09 07:25:23;;;;;;;;;;;;;;;3.68;100.00;95968.47;5056902;28;20536;-67
2024/03/09 07:27:56;;;;;;;24.70;12.70;;;;;;;3.74;100.00;95964.00;5062450;28;20325;-67
2024/03/09 07:30:23;;;;;;;;;;;;;;;3.87;100.00;95968.25;5061313;28;20048;-67
2024/03/09 07:32:50;;;;;;;25.30;11.65;;;;;;;3.93;100.00;95964.59;5062534;28;19924;-67
2024/03/09 07:35:18;;;;;;;22.20;13.23;;;;;;;3.96;100.00;95971.31;5061846;28;20047;-67
2024/03/09 07:37:58;;;;;;;27.40;12.82;;;;;;;4.01;100.00;95966.84;5065013;28;20051;-67
2024/03/09 07:40:25;;;;;;;24.63;13.75;;;;;;;4.15;100.00;95974.56;5066896;28;20032;-67
2024/03/09 07:42:53;;;;;;;25.00;12.38;;;;;;;4.23;100.00;95974.13;5061085;28;20071;-67
2024/03/09 07:45:22;;;;;;;21.98;11.88;;;;;;;4.31;100.00;95974.78;5057136;28;20033;-67
2024/03/09 07:47:50;;;;;;;24.40;11.75;;;;;;;4.39;100.00;95972.47;5064191;28;20047;-66
2024/03/09 07:50:18;;;;;;;24.67;12.48;;;;;;;4.49;100.00;95973.69;5056398;28;20036;-67
2024/03/09 07:52:47;;;;;;;20.33;11.65;;;;;;;4.62;100.00;95977.88;5061858;28;20051;-67
2024/03/09 07:55:20;;;;;;;21.40;11.70;;;;;;;4.75;100.00;95979.41;5066670;28;20048;-66
2024/03/09 07:57:47;;;;;;;23.05;12.10;;;;;;;4.88;100.00;95978.19;5068614;28;20063;-66
2024/03/09 08:00:34;;;;;;;21.27;11.57;;;;;;;5.04;100.00;95989.91;5058951;28;20044;-66
2024/03/09 08:03:01;;;;;;;21.65;11.30;;;;;;;5.14;100.00;95997.28;5065220;28;20036;-66
2024/03/09 08:05:31;;;;;;;24.23;11.65;;;;;;;5.13;100.00;95999.16;5069639;28;20040;-66
2024/03/09 08:08:03;;;;;;;19.98;11.35;;;;;;;5.19;100.00;95989.28;5058233;28;20513;-66
2024/03/09 08:10:31;;;;;;;19.52;11.35;;;;;;;5.19;100.00;95984.72;5060110;28;20063;-67
2024/03/09 08:12:58;;;;;;;19.00;11.40;;;;;;;5.21;100.00;95982.59;5054505;28;20048;-67
2024/03/09 08:15:32;;;;;;;23.10;12.43;;;;;;;5.31;100.00;95971.16;5056162;28;20044;-66
2024/03/09 08:17:59;;;;;;;23.30;11.50;;;;;;;5.42;100.00;95974.75;5055060;28;20076;-66
2024/03/09 08:20:26;;;;;;;23.25;12.20;;;;;;;5.62;100.00;95972.53;5054515;28;20035;-66
2024/03/09 08:22:54;;;;;;;17.70;10.23;;;;;;;5.83;100.00;95984.28;5067616;28;20109;-66
2024/03/09 08:25:25;;;;;;;16.40;9.48;;;;;;;6.07;100.00;95983.94;5050812;28;20045;-66
2024/03/09 08:27:52;;;;;;;17.70;9.63;;;;;;;6.23;100.00;95985.69;5058703;28;20040;-67
2024/03/09 08:30:18;;;;;;;16.10;9.25;;;;;;;6.27;100.00;95987.84;5055423;28;20040;-66
2024/03/09 08:32:52;;;;;;;14.85;9.25;;;;;;;6.29;100.00;95983.84;5062314;28;20124;-67
2024/03/09 08:35:20;;;;;;;17.88;10.15;;;;;;;6.35;100.00;95984.69;5064665;28;20037;-67
2024/03/09 08:37:48;;;;;;;17.80;9.95;;;;;;;6.35;100.00;95980.09;5067861;28;20689;-66
2024/03/09 08:40:20;;;;;;;18.95;9.93;;;;;;;6.43;100.00;95983.38;5057271;28;20036;-67
2024/03/09 08:42:51;;;;;;;18.17;10.25;;;;;;;6.54;100.00;95986.94;5063368;28;20044;-67
2024/03/09 08:45:22;;;;;;;16.85;9.32;;;;;;;6.60;100.00;95983.22;5052542;28;20037;-66
2024/03/09 08:47:53;;;;;;;22.80;10.70;;;;;;;6.63;100.00;95980.81;5067357;28;20064;-66
2024/03/09 08:50:21;;;;;;;17.90;9.52;;;;;;;6.63;100.00;95985.38;5055188;28;20060;-67
2024/03/09 08:52:49;;;;;;;19.70;10.32;;;;;;;6.68;100.00;95984.59;5059824;28;20111;-66
2024/03/09 08:55:16;;;;;;;16.35;9.15;;;;;;;6.78;100.00;95979.25;5066797;28;20098;-66
2024/03/09 08:57:45;;;;;;;17.98;10.32;;;;;;;6.87;100.00;95980.41;5056939;28;20045;-66
2024/03/09 09:00:12;;;;;;;14.40;8.55;;;;;;;6.98;100.00;95981.25;5057546;28;20112;-67
2024/03/09 09:02:40;;;;;;;17.63;10.32;;;;;;;7.08;100.00;95980.47;5060436;28;20041;-66
2024/03/09 09:05:11;;;;;;;18.23;10.32;;;;;;;7.09;100.00;95982.09;5058133;28;20119;-66
2024/03/09 09:07:42;;;;;;;16.02;9.45;;;;;;;7.16;100.00;95973.78;5058815;28;20041;-66
2024/03/09 09:10:14;;;;;;;15.85;9.65;;;;;;;7.21;100.00;95960.31;5060914;28;20037;-66
2024/03/09 09:12:45;;;;;;;16.40;9.13;;;;;;;7.23;100.00;95963.53;5055061;28;20120;-67
2024/03/09 09:15:13;;;;;;;19.48;10.60;;;;;;;7.24;100.00;95961.66;5049034;28;20116;-66
2024/03/09 09:17:42;;;;;;;17.80;9.48;;;;;;;7.34;100.00;95948.22;5066182;28;20045;-66
2024/03/09 09:20:11;;;;;;;22.05;10.23;;;;;;;7.39;100.00;95953.63;5061173;28;20036;-67
2024/03/09 09:22:43;;;;;;;17.77;9.90;;;;;;;7.46;100.00;95947.19;5067634;28;20051;-66
2024/03/09 09:25:12;;;;;;;17.83;10.43;;;;;;;7.56;100.00;95941.81;5054737;28;20044;-67
2024/03/09 09:27:40;;;;;;;20.63;12.27;;;;;;;7.58;100.00;95938.84;5059743;28;20115;-66
2024/03/09 09:30:08;;;;;;;20.45;12.50;;;;;;;7.51;100.00;95941.78;5056980;28;20045;-66
2024/03/09 09:32:35;;;;;;;20.67;13.20;;;;;;;7.56;100.00;95928.34;5053765;28;20039;-66
2024/03/09 09:35:02;;;;;;;20.95;12.85;;;;;;;7.57;100.00;95935.34;5056051;28;20048;-67
2024/03/09 09:37:29;;;;;;;19.08;11.45;;;;;;;7.60;100.00;95932.13;5061108;28;20040;-67
2024/03/09 09:39:56;;;;;;;18.95;12.00;;;;;;;7.59;100.00;95927.78;5059186;28;20045;-66
2024/03/09 09:42:30;;;;;;;19.27;12.13;;;;;;;7.66;100.00;95922.97;5057799;28;20054;-66
2024/03/09 09:44:59;;;;;;;20.75;10.93;;;;;;;7.71;100.00;95930.25;5050085;28;20036;-66
2024/03/09 09:47:27;;;;;;;18.70;11.02;;;;;;;7.81;100.00;95913.25;5056448;28;20041;-66
2024/03/09 09:49:56;;;;;;;21.00;10.90;;;;;;;7.87;100.00;95905.97;5071509;28;20032;-66
2024/03/09 09:52:25;;;;;;;18.35;12.27;;;;;;;7.85;100.00;95910.84;5065505;28;20119;-66
2024/03/09 09:54:56;;;;;;;21.15;12.13;;;;;;;7.72;100.00;95914.88;5066601;28;20051;-66
2024/03/09 09:57:24;;;;;;;19.95;11.82;;;;;;;7.88;100.00;95911.09;5063088;28;20563;-66
2024/03/09 09:59:51;;;;;;;18.75;12.20;;;;;;;7.96;100.00;95908.94;5060592;28;20491;-66
2024/03/09 10:02:21;;;;;;;18.08;10.75;;;;;;;8.03;100.00;95904.06;5055211;28;20056;-66
2024/03/09 10:04:52;;;;;;;19.67;10.37;;;;;;;8.07;100.00;95900.56;5067168;28;20042;-66
2024/03/09 10:07:19;;;;;;;19.15;11.60;;;;;;;8.11;100.00;95894.63;5065712;28;20294;-66
2024/03/09 10:09:47;;;;;;;17.60;11.95;;;;;;;8.18;100.00;95897.84;5069204;28;20414;-66
2024/03/09 10:12:21;;;;;;;17.70;10.50;;;;;;;8.30;100.00;95892.97;5059704;28;20252;-66
2024/03/09 10:14:49;;;;;;;20.33;12.43;;;;;;;8.38;100.00;95897.00;5063551;28;20513;-66
2024/03/09 10:17:19;;;;;;;18.60;10.80;;;;;;;8.54;100.00;95891.56;5055938;28;20579;-67
2024/03/09 10:19:48;;;;;;;18.63;11.43;;;;;;;8.61;100.00;95886.69;5061724;28;20041;-67
2024/03/09 10:22:15;;;;;;;18.60;11.38;;;;;;;8.70;100.00;95887.72;5057978;28;20478;-67
2024/03/09 10:24:56;;;;;;;17.88;10.45;;;;;;;8.76;100.00;95890.41;5066479;28;20040;-66
2024/03/09 10:27:26;;;;;;;17.33;11.00;;;;;;;8.89;100.00;95879.03;5055056;28;20383;-67
2024/03/09 10:30:10;;;;;;;17.02;9.88;;;;;;;8.94;100.00;95883.56;5051789;28;20044;-66
2024/03/09 10:32:41;;;;;;;18.35;10.50;;;;;;;9.05;100.00;95882.44;5061616;28;20045;-67
2024/03/09 10:35:09;;;;;;;16.63;10.57;;;;;;;9.17;100.00;95874.00;5057868;28;20048;-67
2024/03/09 10:37:40;;;;;;;16.48;9.63;;;;;;;9.21;100.00;95864.25;5061888;28;20091;-66
2024/03/09 10:40:12;;;;;;;16.20;9.52;;;;;;;9.39;100.00;95856.56;5070600;28;20043;-66
2024/03/09 10:42:44;;;;;;;15.13;9.32;;;;;;;9.42;100.00;95856.00;5066158;28;20127;-66
2024/03/09 10:45:16;;;;;;;16.42;9.52;;;;;;;9.50;100.00;95847.28;5056853;28;20049;-66
2024/03/09 10:47:56;;;;;;;15.23;9.00;;;;;;;9.66;100.00;95841.75;5070249;28;20044;-66
2024/03/09 10:50:28;;;;;;;17.23;9.43;;;;;;;9.75;100.00;95833.84;5062790;28;20046;-66
2024/03/09 10:53:09;;;;;;;15.18;8.88;;;;;;;9.79;100.00;95834.88;5064900;28;20076;-66
2024/03/09 10:56:04;;;;;;;14.75;9.10;;;;;;;9.82;100.00;95826.22;5065617;28;20450;-65
2024/03/09 10:58:33;;;;;;;14.70;9.23;;;;;;;9.97;100.00;95827.13;5057310;28;20473;-66
2024/03/09 11:00:59;;;;;;;16.08;9.00;;;;;;;10.11;100.00;95829.97;5051049;28;20055;-58
2024/03/09 11:03:26;;;;;;;13.27;8.18;;;;;;;10.32;100.00;95824.34;5055919;28;20448;-57
2024/03/09 11:05:53;;;;;;;13.05;7.68;;;;;;;10.54;98.04;95826.53;5056826;28;20048;-58
2024/03/09 11:08:22;;;;;;;16.65;8.65;;;;;;;10.72;95.71;95819.53;5065216;28;20047;-58
2024/03/09 11:10:49;;;;;;;13.65;7.93;;;;;;;10.75;96.52;95821.66;5065092;28;20076;-58
2024/03/09 11:13:20;;;;;;;14.23;8.93;;;;;;;10.96;98.13;95815.97;5065301;28;20040;-58
2024/03/09 11:15:51;;;;;;;13.60;8.02;;;;;;;11.33;93.29;95821.66;5061462;28;21126;-66
2024/03/09 11:18:21;;;;;;;14.13;8.95;;;;;;;11.09;93.39;95814.41;5060705;28;20048;-66
2024/03/09 11:21:01;;;;;;;14.93;8.70;;;;;;;10.89;93.53;95808.22;5064759;28;20399;-67
2024/03/09 11:23:36;;;;;;;15.40;8.30;;;;;;;10.87;93.41;95806.91;5061687;28;20095;-66
2024/03/09 11:26:03;;;;;;;15.50;8.50;;;;;;;10.92;94.54;95812.25;5055520;28;20044;-66
2024/03/09 11:28:42;;;;;;;12.90;8.00;;;;;;;11.00;93.41;95811.59;5069803;28;20047;-67